sensor_id;sensor_type;location;lat;lon;timestamp;P1;durP1;ratioP1;P2;durP2;ratioP2
61336;SDS011;47212;41.326;2.104;2023-05-07T00:00:36;5.10;;;2.83;;
61336;SDS011;47212;41.326;2.104;2023-05-07T00:05:39;5.45;;;2.92;;
61336;SDS011;47212;41.326;2.104;2023-05-07T00:10:41;3.88;;;3.17;;
61336;SDS011;47212;41.326;2.104;2023-05-07T00:15:43;3.80;;;2.50;;
61336;SDS011;47212;41.326;2.104;2023-05-07T00:20:45;6.10;;;3.97;;
61336;SDS011;47212;41.326;2.104;2023-05-07T00:25:47;6.88;;;5.57;;
61336;SDS011;47212;41.326;2.104;2023-05-07T00:30:49;8.18;;;6.63;;
61336;SDS011;47212;41.326;2.104;2023-05-07T00:35:51;12.05;;;7.78;;
61336;SDS011;47212;41.326;2.104;2023-05-07T00:40:53;8.77;;;6.72;;
61336;SDS011;47212;41.326;2.104;2023-05-07T00:45:55;8.70;;;6.35;;
61336;SDS011;47212;41.326;2.104;2023-05-07T00:50:57;7.53;;;5.47;;
61336;SDS011;47212;41.326;2.104;2023-05-07T00:55:59;5.45;;;4.45;;
61336;SDS011;47212;41.326;2.104;2023-05-07T01:05:21;4.95;;;4.38;;
61336;SDS011;47212;41.326;2.104;2023-05-07T01:10:26;4.28;;;3.72;;
61336;SDS011;47212;41.326;2.104;2023-05-07T01:15:32;5.60;;;4.22;;
61336;SDS011;47212;41.326;2.104;2023-05-07T01:20:34;7.85;;;4.78;;
61336;SDS011;47212;41.326;2.104;2023-05-07T01:25:36;5.13;;;3.33;;
61336;SDS011;47212;41.326;2.104;2023-05-07T01:30:39;6.43;;;4.07;;
61336;SDS011;47212;41.326;2.104;2023-05-07T01:35:49;7.43;;;5.32;;
61336;SDS011;47212;41.326;2.104;2023-05-07T01:40:57;6.97;;;4.88;;
61336;SDS011;47212;41.326;2.104;2023-05-07T01:46:00;4.93;;;3.20;;
61336;SDS011;47212;41.326;2.104;2023-05-07T01:51:04;6.80;;;3.92;;
61336;SDS011;47212;41.326;2.104;2023-05-07T01:56:07;5.32;;;4.18;;
61336;SDS011;47212;41.326;2.104;2023-05-07T02:01:15;4.80;;;3.60;;
61336;SDS011;47212;41.326;2.104;2023-05-07T02:06:20;6.25;;;4.15;;
61336;SDS011;47212;41.326;2.104;2023-05-07T02:11:25;7.75;;;3.90;;
61336;SDS011;47212;41.326;2.104;2023-05-07T02:16:28;3.58;;;2.72;;
61336;SDS011;47212;41.326;2.104;2023-05-07T02:21:30;5.25;;;3.55;;
61336;SDS011;47212;41.326;2.104;2023-05-07T02:26:32;4.95;;;3.42;;
61336;SDS011;47212;41.326;2.104;2023-05-07T02:31:34;5.15;;;3.65;;
61336;SDS011;47212;41.326;2.104;2023-05-07T02:36:37;5.45;;;3.53;;
61336;SDS011;47212;41.326;2.104;2023-05-07T02:41:44;6.47;;;4.28;;
61336;SDS011;47212;41.326;2.104;2023-05-07T02:46:46;7.65;;;4.18;;
61336;SDS011;47212;41.326;2.104;2023-05-07T02:51:48;6.30;;;4.43;;
61336;SDS011;47212;41.326;2.104;2023-05-07T02:56:55;7.22;;;4.70;;
61336;SDS011;47212;41.326;2.104;2023-05-07T03:02:00;5.00;;;3.30;;
61336;SDS011;47212;41.326;2.104;2023-05-07T03:07:03;4.18;;;3.13;;
61336;SDS011;47212;41.326;2.104;2023-05-07T03:12:10;6.43;;;4.22;;
61336;SDS011;47212;41.326;2.104;2023-05-07T03:17:15;6.75;;;4.30;;
61336;SDS011;47212;41.326;2.104;2023-05-07T03:22:18;6.82;;;3.75;;
61336;SDS011;47212;41.326;2.104;2023-05-07T03:27:20;8.18;;;5.10;;
61336;SDS011;47212;41.326;2.104;2023-05-07T03:32:27;5.28;;;4.10;;
61336;SDS011;47212;41.326;2.104;2023-05-07T03:37:29;4.38;;;3.90;;
61336;SDS011;47212;41.326;2.104;2023-05-07T03:42:32;8.15;;;4.60;;
61336;SDS011;47212;41.326;2.104;2023-05-07T03:47:34;7.82;;;4.82;;
61336;SDS011;47212;41.326;2.104;2023-05-07T03:52:36;8.05;;;4.90;;
61336;SDS011;47212;41.326;2.104;2023-05-07T03:57:40;6.95;;;4.57;;
61336;SDS011;47212;41.326;2.104;2023-05-07T04:08:53;6.30;;;3.85;;
61336;SDS011;47212;41.326;2.104;2023-05-07T04:13:55;7.43;;;3.78;;
61336;SDS011;47212;41.326;2.104;2023-05-07T04:18:58;5.13;;;3.90;;
61336;SDS011;47212;41.326;2.104;2023-05-07T04:24:37;5.05;;;3.90;;
61336;SDS011;47212;41.326;2.104;2023-05-07T04:30:20;5.03;;;3.30;;
61336;SDS011;47212;41.326;2.104;2023-05-07T04:36:03;5.93;;;3.70;;
61336;SDS011;47212;41.326;2.104;2023-05-07T04:42:45;6.47;;;4.05;;
61336;SDS011;47212;41.326;2.104;2023-05-07T04:48:12;6.07;;;3.80;;
61336;SDS011;47212;41.326;2.104;2023-05-07T04:53:17;4.80;;;3.58;;
61336;SDS011;47212;41.326;2.104;2023-05-07T04:58:19;9.40;;;4.43;;
61336;SDS011;47212;41.326;2.104;2023-05-07T05:03:21;5.38;;;3.42;;
61336;SDS011;47212;41.326;2.104;2023-05-07T05:08:24;8.88;;;4.45;;
61336;SDS011;47212;41.326;2.104;2023-05-07T05:13:26;6.47;;;3.78;;
61336;SDS011;47212;41.326;2.104;2023-05-07T05:18:28;5.15;;;2.78;;
61336;SDS011;47212;41.326;2.104;2023-05-07T05:23:30;6.18;;;3.33;;
61336;SDS011;47212;41.326;2.104;2023-05-07T05:28:33;6.82;;;3.67;;
61336;SDS011;47212;41.326;2.104;2023-05-07T05:33:36;3.65;;;2.70;;
61336;SDS011;47212;41.326;2.104;2023-05-07T05:38:39;3.28;;;2.38;;
61336;SDS011;47212;41.326;2.104;2023-05-07T05:43:43;4.15;;;2.97;;
61336;SDS011;47212;41.326;2.104;2023-05-07T05:48:45;4.78;;;3.13;;
61336;SDS011;47212;41.326;2.104;2023-05-07T05:53:47;4.60;;;2.65;;
61336;SDS011;47212;41.326;2.104;2023-05-07T05:58:49;6.00;;;2.90;;
61336;SDS011;47212;41.326;2.104;2023-05-07T06:03:52;7.05;;;2.90;;
61336;SDS011;47212;41.326;2.104;2023-05-07T06:08:54;4.72;;;2.60;;
61336;SDS011;47212;41.326;2.104;2023-05-07T06:14:05;5.25;;;3.40;;
61336;SDS011;47212;41.326;2.104;2023-05-07T06:19:08;5.38;;;2.85;;
61336;SDS011;47212;41.326;2.104;2023-05-07T06:24:11;4.20;;;2.63;;
61336;SDS011;47212;41.326;2.104;2023-05-07T06:29:13;3.05;;;2.17;;
61336;SDS011;47212;41.326;2.104;2023-05-07T06:34:16;4.05;;;2.72;;
61336;SDS011;47212;41.326;2.104;2023-05-07T06:39:18;4.38;;;2.47;;
61336;SDS011;47212;41.326;2.104;2023-05-07T06:44:21;3.95;;;2.50;;
61336;SDS011;47212;41.326;2.104;2023-05-07T06:49:34;4.03;;;2.65;;
61336;SDS011;47212;41.326;2.104;2023-05-07T06:54:36;4.07;;;3.17;;
61336;SDS011;47212;41.326;2.104;2023-05-07T06:59:39;3.35;;;2.00;;
61336;SDS011;47212;41.326;2.104;2023-05-07T07:04:42;6.72;;;3.13;;
61336;SDS011;47212;41.326;2.104;2023-05-07T07:09:45;4.50;;;2.88;;
61336;SDS011;47212;41.326;2.104;2023-05-07T07:14:50;4.53;;;2.97;;
61336;SDS011;47212;41.326;2.104;2023-05-07T07:19:52;4.13;;;2.97;;
61336;SDS011;47212;41.326;2.104;2023-05-07T07:24:54;6.68;;;2.97;;
61336;SDS011;47212;41.326;2.104;2023-05-07T07:29:57;6.95;;;3.10;;
61336;SDS011;47212;41.326;2.104;2023-05-07T07:34:59;3.65;;;2.45;;
61336;SDS011;47212;41.326;2.104;2023-05-07T07:40:02;4.93;;;3.30;;
61336;SDS011;47212;41.326;2.104;2023-05-07T07:45:08;5.68;;;3.08;;
61336;SDS011;47212;41.326;2.104;2023-05-07T07:50:15;5.10;;;3.17;;
61336;SDS011;47212;41.326;2.104;2023-05-07T07:55:30;4.18;;;2.85;;
61336;SDS011;47212;41.326;2.104;2023-05-07T08:00:34;4.20;;;2.90;;
61336;SDS011;47212;41.326;2.104;2023-05-07T08:05:37;6.43;;;2.88;;
61336;SDS011;47212;41.326;2.104;2023-05-07T08:10:40;5.10;;;2.65;;
61336;SDS011;47212;41.326;2.104;2023-05-07T08:15:50;5.03;;;2.80;;
61336;SDS011;47212;41.326;2.104;2023-05-07T08:20:56;4.53;;;2.60;;
61336;SDS011;47212;41.326;2.104;2023-05-07T08:26:00;5.82;;;2.50;;
61336;SDS011;47212;41.326;2.104;2023-05-07T08:31:04;5.18;;;2.63;;
61336;SDS011;47212;41.326;2.104;2023-05-07T08:36:10;4.60;;;2.50;;
61336;SDS011;47212;41.326;2.104;2023-05-07T08:41:17;6.20;;;3.22;;
61336;SDS011;47212;41.326;2.104;2023-05-07T08:46:21;4.95;;;2.60;;
61336;SDS011;47212;41.326;2.104;2023-05-07T08:51:28;4.35;;;2.45;;
61336;SDS011;47212;41.326;2.104;2023-05-07T08:56:30;4.50;;;2.85;;
61336;SDS011;47212;41.326;2.104;2023-05-07T09:01:33;4.22;;;2.72;;
61336;SDS011;47212;41.326;2.104;2023-05-07T09:06:40;4.38;;;2.38;;
61336;SDS011;47212;41.326;2.104;2023-05-07T09:11:48;3.83;;;2.50;;
61336;SDS011;47212;41.326;2.104;2023-05-07T09:16:53;3.47;;;2.55;;
61336;SDS011;47212;41.326;2.104;2023-05-07T09:22:02;3.72;;;2.30;;
61336;SDS011;47212;41.326;2.104;2023-05-07T09:27:26;6.63;;;2.55;;
61336;SDS011;47212;41.326;2.104;2023-05-07T09:32:32;5.22;;;2.70;;
61336;SDS011;47212;41.326;2.104;2023-05-07T09:37:47;4.68;;;2.53;;
61336;SDS011;47212;41.326;2.104;2023-05-07T09:42:49;6.90;;;2.50;;
61336;SDS011;47212;41.326;2.104;2023-05-07T09:47:56;4.93;;;2.78;;
61336;SDS011;47212;41.326;2.104;2023-05-07T09:53:01;4.45;;;2.70;;
61336;SDS011;47212;41.326;2.104;2023-05-07T09:58:06;4.78;;;2.70;;
61336;SDS011;47212;41.326;2.104;2023-05-07T10:03:09;6.78;;;2.75;;
61336;SDS011;47212;41.326;2.104;2023-05-07T10:08:22;5.53;;;2.70;;
61336;SDS011;47212;41.326;2.104;2023-05-07T10:13:30;5.78;;;2.88;;
61336;SDS011;47212;41.326;2.104;2023-05-07T10:18:34;5.05;;;2.58;;
61336;SDS011;47212;41.326;2.104;2023-05-07T10:23:50;4.90;;;3.15;;
61336;SDS011;47212;41.326;2.104;2023-05-07T10:28:57;6.50;;;2.70;;
61336;SDS011;47212;41.326;2.104;2023-05-07T10:34:07;3.55;;;2.63;;
61336;SDS011;47212;41.326;2.104;2023-05-07T10:39:11;6.07;;;3.13;;
61336;SDS011;47212;41.326;2.104;2023-05-07T10:44:30;5.13;;;2.50;;
61336;SDS011;47212;41.326;2.104;2023-05-07T11:00:56;7.35;;;3.17;;
61336;SDS011;47212;41.326;2.104;2023-05-07T11:06:15;5.20;;;2.55;;
61336;SDS011;47212;41.326;2.104;2023-05-07T11:11:44;4.95;;;2.90;;
61336;SDS011;47212;41.326;2.104;2023-05-07T11:17:19;6.78;;;3.40;;
61336;SDS011;47212;41.326;2.104;2023-05-07T11:27:45;4.68;;;2.70;;
61336;SDS011;47212;41.326;2.104;2023-05-07T11:32:48;5.03;;;2.50;;
61336;SDS011;47212;41.326;2.104;2023-05-07T11:37:57;4.43;;;2.42;;
61336;SDS011;47212;41.326;2.104;2023-05-07T11:43:10;4.78;;;2.58;;
61336;SDS011;47212;41.326;2.104;2023-05-07T11:48:12;4.55;;;2.63;;
61336;SDS011;47212;41.326;2.104;2023-05-07T11:53:16;6.68;;;3.22;;
61336;SDS011;47212;41.326;2.104;2023-05-07T11:58:22;10.77;;;5.82;;
61336;SDS011;47212;41.326;2.104;2023-05-07T12:03:25;5.35;;;3.05;;
61336;SDS011;47212;41.326;2.104;2023-05-07T12:08:32;3.67;;;2.60;;
61336;SDS011;47212;41.326;2.104;2023-05-07T12:13:34;8.68;;;3.10;;
61336;SDS011;47212;41.326;2.104;2023-05-07T12:18:36;4.13;;;2.88;;
61336;SDS011;47212;41.326;2.104;2023-05-07T12:23:39;4.55;;;2.80;;
61336;SDS011;47212;41.326;2.104;2023-05-07T12:28:41;5.63;;;2.65;;
61336;SDS011;47212;41.326;2.104;2023-05-07T12:33:44;5.47;;;2.85;;
61336;SDS011;47212;41.326;2.104;2023-05-07T12:38:46;4.50;;;2.03;;
61336;SDS011;47212;41.326;2.104;2023-05-07T12:43:51;3.85;;;2.50;;
61336;SDS011;47212;41.326;2.104;2023-05-07T12:49:00;4.90;;;3.03;;
61336;SDS011;47212;41.326;2.104;2023-05-07T12:54:02;5.38;;;2.58;;
61336;SDS011;47212;41.326;2.104;2023-05-07T12:59:05;6.00;;;2.40;;
61336;SDS011;47212;41.326;2.104;2023-05-07T13:04:07;4.00;;;2.47;;
61336;SDS011;47212;41.326;2.104;2023-05-07T13:09:09;3.60;;;2.33;;
61336;SDS011;47212;41.326;2.104;2023-05-07T13:14:11;3.40;;;2.10;;
61336;SDS011;47212;41.326;2.104;2023-05-07T13:19:14;4.65;;;2.13;;
61336;SDS011;47212;41.326;2.104;2023-05-07T13:24:16;5.38;;;4.03;;
61336;SDS011;47212;41.326;2.104;2023-05-07T13:29:18;4.90;;;2.58;;
61336;SDS011;47212;41.326;2.104;2023-05-07T13:34:20;4.35;;;2.53;;
61336;SDS011;47212;41.326;2.104;2023-05-07T13:39:22;3.88;;;2.53;;
61336;SDS011;47212;41.326;2.104;2023-05-07T13:44:24;3.70;;;2.20;;
61336;SDS011;47212;41.326;2.104;2023-05-07T13:49:26;4.95;;;2.53;;
61336;SDS011;47212;41.326;2.104;2023-05-07T13:54:28;4.45;;;2.30;;
61336;SDS011;47212;41.326;2.104;2023-05-07T13:59:31;3.78;;;2.28;;
61336;SDS011;47212;41.326;2.104;2023-05-07T14:04:33;4.05;;;2.35;;
61336;SDS011;47212;41.326;2.104;2023-05-07T14:09:36;4.18;;;2.42;;
61336;SDS011;47212;41.326;2.104;2023-05-07T14:14:38;3.53;;;2.00;;
61336;SDS011;47212;41.326;2.104;2023-05-07T14:19:40;3.63;;;2.22;;
61336;SDS011;47212;41.326;2.104;2023-05-07T14:24:42;3.78;;;2.20;;
61336;SDS011;47212;41.326;2.104;2023-05-07T14:29:47;3.33;;;2.13;;
61336;SDS011;47212;41.326;2.104;2023-05-07T14:34:54;3.60;;;2.10;;
61336;SDS011;47212;41.326;2.104;2023-05-07T14:39:57;4.53;;;1.80;;
61336;SDS011;47212;41.326;2.104;2023-05-07T14:44:59;2.97;;;1.85;;
61336;SDS011;47212;41.326;2.104;2023-05-07T14:50:01;3.75;;;1.92;;
61336;SDS011;47212;41.326;2.104;2023-05-07T14:55:04;5.68;;;1.75;;
61336;SDS011;47212;41.326;2.104;2023-05-07T15:00:09;2.50;;;1.52;;
61336;SDS011;47212;41.326;2.104;2023-05-07T15:05:12;2.55;;;1.70;;
61336;SDS011;47212;41.326;2.104;2023-05-07T15:10:16;2.88;;;1.70;;
61336;SDS011;47212;41.326;2.104;2023-05-07T15:15:18;3.10;;;1.90;;
61336;SDS011;47212;41.326;2.104;2023-05-07T15:20:20;4.88;;;1.77;;
61336;SDS011;47212;41.326;2.104;2023-05-07T15:25:22;2.95;;;1.80;;
61336;SDS011;47212;41.326;2.104;2023-05-07T15:30:24;2.20;;;1.70;;
61336;SDS011;47212;41.326;2.104;2023-05-07T15:35:27;4.43;;;1.67;;
61336;SDS011;47212;41.326;2.104;2023-05-07T15:40:29;2.58;;;1.50;;
61336;SDS011;47212;41.326;2.104;2023-05-07T15:45:31;5.20;;;2.22;;
61336;SDS011;47212;41.326;2.104;2023-05-07T15:50:33;3.72;;;1.80;;
61336;SDS011;47212;41.326;2.104;2023-05-07T15:55:36;4.55;;;1.90;;
61336;SDS011;47212;41.326;2.104;2023-05-07T16:00:38;6.05;;;2.22;;
61336;SDS011;47212;41.326;2.104;2023-05-07T16:05:42;4.65;;;1.90;;
61336;SDS011;47212;41.326;2.104;2023-05-07T16:10:44;3.72;;;1.80;;
61336;SDS011;47212;41.326;2.104;2023-05-07T16:15:46;5.00;;;2.05;;
61336;SDS011;47212;41.326;2.104;2023-05-07T16:20:51;4.82;;;1.95;;
61336;SDS011;47212;41.326;2.104;2023-05-07T16:25:55;3.03;;;1.65;;
61336;SDS011;47212;41.326;2.104;2023-05-07T16:31:00;4.00;;;1.85;;
61336;SDS011;47212;41.326;2.104;2023-05-07T16:36:02;2.95;;;1.80;;
61336;SDS011;47212;41.326;2.104;2023-05-07T16:41:04;2.67;;;1.50;;
61336;SDS011;47212;41.326;2.104;2023-05-07T16:46:06;3.45;;;1.70;;
61336;SDS011;47212;41.326;2.104;2023-05-07T16:51:08;3.80;;;1.95;;
61336;SDS011;47212;41.326;2.104;2023-05-07T16:56:10;5.72;;;1.90;;
61336;SDS011;47212;41.326;2.104;2023-05-07T17:01:12;3.92;;;2.10;;
61336;SDS011;47212;41.326;2.104;2023-05-07T17:06:15;5.55;;;2.20;;
61336;SDS011;47212;41.326;2.104;2023-05-07T17:11:18;4.00;;;1.85;;
61336;SDS011;47212;41.326;2.104;2023-05-07T17:16:20;3.20;;;2.00;;
61336;SDS011;47212;41.326;2.104;2023-05-07T17:21:22;4.43;;;1.90;;
61336;SDS011;47212;41.326;2.104;2023-05-07T17:26:24;4.43;;;2.00;;
61336;SDS011;47212;41.326;2.104;2023-05-07T17:31:26;6.65;;;1.95;;
61336;SDS011;47212;41.326;2.104;2023-05-07T17:36:28;5.57;;;1.95;;
61336;SDS011;47212;41.326;2.104;2023-05-07T17:41:30;3.17;;;1.95;;
61336;SDS011;47212;41.326;2.104;2023-05-07T17:46:32;2.83;;;1.90;;
61336;SDS011;47212;41.326;2.104;2023-05-07T17:51:34;3.65;;;2.03;;
61336;SDS011;47212;41.326;2.104;2023-05-07T17:56:53;4.75;;;2.20;;
61336;SDS011;47212;41.326;2.104;2023-05-07T18:01:55;3.70;;;1.90;;
61336;SDS011;47212;41.326;2.104;2023-05-07T18:06:58;4.07;;;2.00;;
61336;SDS011;47212;41.326;2.104;2023-05-07T18:12:00;3.85;;;2.20;;
61336;SDS011;47212;41.326;2.104;2023-05-07T18:17:02;4.72;;;2.42;;
61336;SDS011;47212;41.326;2.104;2023-05-07T18:22:04;6.38;;;2.60;;
61336;SDS011;47212;41.326;2.104;2023-05-07T18:27:06;4.15;;;2.13;;
61336;SDS011;47212;41.326;2.104;2023-05-07T18:32:08;5.18;;;1.80;;
61336;SDS011;47212;41.326;2.104;2023-05-07T18:37:10;3.03;;;1.90;;
61336;SDS011;47212;41.326;2.104;2023-05-07T18:42:21;4.60;;;2.05;;
61336;SDS011;47212;41.326;2.104;2023-05-07T18:47:23;2.88;;;1.67;;
61336;SDS011;47212;41.326;2.104;2023-05-07T18:52:25;11.05;;;2.13;;
61336;SDS011;47212;41.326;2.104;2023-05-07T18:57:29;3.70;;;1.70;;
61336;SDS011;47212;41.326;2.104;2023-05-07T19:02:31;3.92;;;1.70;;
61336;SDS011;47212;41.326;2.104;2023-05-07T19:07:33;4.57;;;2.10;;
61336;SDS011;47212;41.326;2.104;2023-05-07T19:12:36;2.70;;;1.48;;
61336;SDS011;47212;41.326;2.104;2023-05-07T19:17:38;2.95;;;1.80;;
61336;SDS011;47212;41.326;2.104;2023-05-07T19:22:40;2.13;;;1.42;;
61336;SDS011;47212;41.326;2.104;2023-05-07T19:27:43;2.95;;;1.35;;
61336;SDS011;47212;41.326;2.104;2023-05-07T19:32:45;4.25;;;2.10;;
61336;SDS011;47212;41.326;2.104;2023-05-07T19:37:47;4.80;;;3.97;;
61336;SDS011;47212;41.326;2.104;2023-05-07T19:42:49;4.53;;;2.20;;
61336;SDS011;47212;41.326;2.104;2023-05-07T19:47:51;8.30;;;2.47;;
61336;SDS011;47212;41.326;2.104;2023-05-07T19:52:53;2.72;;;1.70;;
61336;SDS011;47212;41.326;2.104;2023-05-07T19:57:55;3.38;;;1.48;;
61336;SDS011;47212;41.326;2.104;2023-05-07T20:02:58;3.75;;;2.10;;
61336;SDS011;47212;41.326;2.104;2023-05-07T20:08:00;3.70;;;1.92;;
61336;SDS011;47212;41.326;2.104;2023-05-07T20:13:02;3.53;;;1.95;;
61336;SDS011;47212;41.326;2.104;2023-05-07T20:18:05;2.90;;;1.30;;
61336;SDS011;47212;41.326;2.104;2023-05-07T20:23:07;4.25;;;1.95;;
61336;SDS011;47212;41.326;2.104;2023-05-07T20:28:09;4.40;;;2.22;;
61336;SDS011;47212;41.326;2.104;2023-05-07T20:33:11;5.10;;;2.25;;
61336;SDS011;47212;41.326;2.104;2023-05-07T20:38:17;5.00;;;2.25;;
61336;SDS011;47212;41.326;2.104;2023-05-07T20:43:22;5.25;;;2.30;;
61336;SDS011;47212;41.326;2.104;2023-05-07T20:48:24;4.72;;;2.00;;
61336;SDS011;47212;41.326;2.104;2023-05-07T20:53:31;4.28;;;2.22;;
61336;SDS011;47212;41.326;2.104;2023-05-07T20:58:33;8.25;;;2.50;;
61336;SDS011;47212;41.326;2.104;2023-05-07T21:03:36;4.35;;;2.47;;
61336;SDS011;47212;41.326;2.104;2023-05-07T21:08:38;5.05;;;2.10;;
61336;SDS011;47212;41.326;2.104;2023-05-07T21:13:40;5.00;;;2.35;;
61336;SDS011;47212;41.326;2.104;2023-05-07T21:18:42;3.95;;;2.00;;
61336;SDS011;47212;41.326;2.104;2023-05-07T21:23:44;6.90;;;2.88;;
61336;SDS011;47212;41.326;2.104;2023-05-07T21:28:46;3.20;;;2.00;;
61336;SDS011;47212;41.326;2.104;2023-05-07T21:33:49;2.75;;;1.80;;
61336;SDS011;47212;41.326;2.104;2023-05-07T21:38:53;6.38;;;4.47;;
61336;SDS011;47212;41.326;2.104;2023-05-07T21:43:55;3.50;;;2.50;;
61336;SDS011;47212;41.326;2.104;2023-05-07T21:48:57;4.50;;;2.20;;
61336;SDS011;47212;41.326;2.104;2023-05-07T21:54:02;6.20;;;2.28;;
61336;SDS011;47212;41.326;2.104;2023-05-07T21:59:04;3.45;;;1.98;;
61336;SDS011;47212;41.326;2.104;2023-05-07T22:04:07;5.40;;;2.22;;
61336;SDS011;47212;41.326;2.104;2023-05-07T22:09:09;3.85;;;2.13;;
61336;SDS011;47212;41.326;2.104;2023-05-07T22:14:11;4.50;;;2.10;;
61336;SDS011;47212;41.326;2.104;2023-05-07T22:19:16;3.92;;;2.38;;
61336;SDS011;47212;41.326;2.104;2023-05-07T22:24:18;5.85;;;2.70;;
61336;SDS011;47212;41.326;2.104;2023-05-07T22:29:20;5.40;;;3.03;;
61336;SDS011;47212;41.326;2.104;2023-05-07T22:34:24;5.38;;;2.80;;
61336;SDS011;47212;41.326;2.104;2023-05-07T22:39:26;4.72;;;2.60;;
61336;SDS011;47212;41.326;2.104;2023-05-07T22:44:28;6.90;;;2.80;;
61336;SDS011;47212;41.326;2.104;2023-05-07T22:49:32;6.50;;;2.63;;
61336;SDS011;47212;41.326;2.104;2023-05-07T22:54:35;3.83;;;2.13;;
61336;SDS011;47212;41.326;2.104;2023-05-07T22:59:37;3.70;;;1.90;;
61336;SDS011;47212;41.326;2.104;2023-05-07T23:04:39;5.07;;;2.38;;
61336;SDS011;47212;41.326;2.104;2023-05-07T23:09:41;5.20;;;2.20;;
61336;SDS011;47212;41.326;2.104;2023-05-07T23:14:46;5.53;;;2.60;;
61336;SDS011;47212;41.326;2.104;2023-05-07T23:19:48;6.13;;;2.40;;
61336;SDS011;47212;41.326;2.104;2023-05-07T23:24:50;3.83;;;2.10;;
61336;SDS011;47212;41.326;2.104;2023-05-07T23:30:02;5.30;;;2.08;;
61336;SDS011;47212;41.326;2.104;2023-05-07T23:35:04;4.43;;;2.28;;
61336;SDS011;47212;41.326;2.104;2023-05-07T23:40:07;4.85;;;2.10;;
61336;SDS011;47212;41.326;2.104;2023-05-07T23:45:09;4.45;;;2.05;;
61336;SDS011;47212;41.326;2.104;2023-05-07T23:50:11;3.35;;;1.88;;
61336;SDS011;47212;41.326;2.104;2023-05-07T23:55:16;4.10;;;2.22;;
